createdAt,value
2023-02-09T00:03:44.025Z,98276.34
2023-02-09T00:08:36.680Z,98278.72
2023-02-09T00:13:28.361Z,98273.06
2023-02-09T00:18:21.127Z,98275.63
2023-02-09T00:23:12.829Z,98277.47
2023-02-09T00:28:04.845Z,98273.47
2023-02-09T00:32:56.568Z,98273.75
2023-02-09T00:37:48.216Z,98275.38
2023-02-09T00:42:39.888Z,98273.00
2023-02-09T00:47:31.578Z,98272.50
2023-02-09T00:52:23.261Z,98277.59
2023-02-09T00:57:14.931Z,98265.31
2023-02-09T01:02:06.913Z,98267.38
2023-02-09T01:06:58.718Z,98267.06
2023-02-09T01:11:50.993Z,98269.41
2023-02-09T01:16:42.851Z,98268.63
2023-02-09T01:21:34.550Z,98262.88
2023-02-09T01:26:26.311Z,98262.34
2023-02-09T01:31:26.740Z,98254.84
2023-02-09T01:36:18.647Z,98254.22
2023-02-09T01:41:10.863Z,98263.03
2023-02-09T01:46:02.558Z,98247.69
2023-02-09T01:51:00.831Z,98240.59
2023-02-09T01:56:01.714Z,98250.22
2023-02-09T02:00:53.691Z,98246.47
2023-02-09T02:05:51.966Z,98246.53
2023-02-09T02:10:43.960Z,98245.78
2023-02-09T02:16:02.893Z,98244.88
2023-02-09T02:21:40.648Z,98240.56
2023-02-09T02:27:04.085Z,98232.47
2023-02-09T02:32:26.649Z,98238.88
2023-02-09T02:37:43.200Z,98232.03
2023-02-09T02:42:59.743Z,98230.09
2023-02-09T02:48:36.363Z,98233.03
2023-02-09T02:53:33.539Z,98221.03
2023-02-09T02:58:28.629Z,98222.94
2023-02-09T03:03:33.425Z,98221.09
2023-02-09T03:08:25.172Z,98218.72
2023-02-09T03:13:42.031Z,98231.91
2023-02-09T03:19:02.765Z,98234.56
2023-02-09T03:24:04.458Z,98228.84
2023-02-09T03:28:59.378Z,98236.25
2023-02-09T03:33:51.667Z,98242.28
2023-02-09T03:38:43.513Z,98244.94
2023-02-09T03:43:53.998Z,98243.44
2023-02-09T03:48:46.089Z,98249.19
2023-02-09T03:53:37.786Z,98259.25
2023-02-09T03:58:29.583Z,98259.75
2023-02-09T04:03:21.454Z,98255.16
2023-02-09T04:08:13.126Z,98251.28
2023-02-09T04:13:04.788Z,98253.25
2023-02-09T04:17:56.471Z,98265.41
2023-02-09T04:22:48.137Z,98263.41
2023-02-09T04:27:39.818Z,98264.38
2023-02-09T04:32:31.484Z,98261.28
2023-02-09T04:37:23.161Z,98255.97
2023-02-09T04:42:14.842Z,98268.00
2023-02-09T04:47:06.535Z,98263.53
2023-02-09T04:51:58.199Z,98277.34
2023-02-09T04:57:09.857Z,98275.53
2023-02-09T05:02:01.758Z,98277.06
2023-02-09T05:06:53.561Z,98276.09
2023-02-09T05:11:45.302Z,98272.88
2023-02-09T05:16:39.370Z,98274.06
2023-02-09T05:21:31.386Z,98287.66
2023-02-09T05:26:23.286Z,98288.78
2023-02-09T05:31:15.304Z,98288.03
2023-02-09T05:36:09.770Z,98286.03
2023-02-09T05:41:08.298Z,98294.06
2023-02-09T05:46:00.536Z,98288.41
2023-02-09T05:50:53.113Z,98292.63
2023-02-09T05:55:47.280Z,98288.69
2023-02-09T06:00:40.792Z,98297.19
2023-02-09T06:05:33.116Z,98299.44
2023-02-09T06:10:27.250Z,98294.16
2023-02-09T06:20:24.973Z,98303.00
2023-02-09T06:25:17.970Z,98318.19
2023-02-09T06:30:11.947Z,98315.53
2023-02-09T06:35:04.256Z,98323.22
2023-02-09T06:39:56.956Z,98323.75
2023-02-09T06:44:49.363Z,98323.47
2023-02-09T06:49:41.243Z,98315.63
2023-02-09T06:54:34.485Z,98328.22
2023-02-09T06:59:26.689Z,98324.56
2023-02-09T07:04:19.326Z,98321.94
2023-02-09T07:09:12.426Z,98326.19
2023-02-09T07:14:11.976Z,98330.44
2023-02-09T07:19:03.800Z,98336.81
2023-02-09T07:23:55.484Z,98335.75
2023-02-09T07:28:47.665Z,98344.19
2023-02-09T07:33:39.727Z,98342.66
2023-02-09T07:38:31.627Z,98344.97
2023-02-09T07:43:23.883Z,98350.44
2023-02-09T07:48:15.713Z,98351.63
2023-02-09T07:53:11.251Z,98353.69
2023-02-09T08:13:26.435Z,98362.59
2023-02-09T08:18:34.551Z,98357.88
2023-02-09T08:28:52.236Z,98366.44
2023-02-09T08:39:00.055Z,98357.13
2023-02-09T08:43:52.622Z,98356.84
2023-02-09T08:48:48.412Z,98359.31
2023-02-09T08:58:47.185Z,98374.31
2023-02-09T09:03:42.578Z,98362.53
2023-02-09T09:08:39.126Z,98359.50
2023-02-09T09:13:31.249Z,98360.03
2023-02-09T09:18:26.322Z,98374.97
2023-02-09T09:23:22.959Z,98370.56
2023-02-09T09:28:24.893Z,98368.16
2023-02-09T09:38:27.193Z,98368.03
2023-02-09T09:48:49.899Z,98378.97
2023-02-09T09:53:50.025Z,98375.78
2023-02-09T09:58:45.345Z,98374.81
2023-02-09T10:03:37.073Z,98376.88
2023-02-09T10:08:44.964Z,98380.22
2023-02-09T10:13:58.348Z,98386.72
2023-02-09T10:24:36.392Z,98382.28
2023-02-09T10:29:29.349Z,98377.88
2023-02-09T10:34:48.700Z,98379.19
2023-02-09T10:39:41.240Z,98376.84
2023-02-09T10:44:40.262Z,98367.56
2023-02-09T10:49:43.313Z,98359.81
2023-02-09T10:54:36.724Z,98364.78
2023-02-09T11:04:42.365Z,98351.72
2023-02-09T11:09:47.510Z,98342.22
2023-02-09T11:20:19.841Z,98328.47
2023-02-09T11:25:46.659Z,98322.00
2023-02-09T11:31:34.612Z,98314.78
2023-02-09T11:37:05.914Z,98304.00
2023-02-09T11:53:05.161Z,98300.22
2023-02-09T11:58:27.119Z,98292.47
2023-02-09T12:08:38.528Z,98285.56
2023-02-09T12:14:04.999Z,98283.50
2023-02-09T12:29:40.789Z,98260.66
2023-02-09T12:40:10.362Z,98251.75
2023-02-09T12:55:39.666Z,98225.91
2023-02-09T13:00:40.157Z,98219.88
2023-02-09T13:05:40.665Z,98221.59
2023-02-09T13:10:51.407Z,98215.88
2023-02-09T13:16:10.180Z,98212.69
2023-02-09T13:21:36.465Z,98216.91
2023-02-09T13:32:01.687Z,98213.50
2023-02-09T13:37:31.949Z,98215.41
2023-02-09T13:42:29.832Z,98216.00
2023-02-09T13:47:27.017Z,98215.53
2023-02-09T13:57:36.913Z,98215.31
2023-02-09T14:02:35.253Z,98209.44
2023-02-09T14:07:43.941Z,98204.50
2023-02-09T14:13:01.912Z,98201.34
2023-02-09T14:18:06.153Z,98203.88
2023-02-09T14:23:09.626Z,98211.59
2023-02-09T14:28:01.805Z,98207.09
2023-02-09T14:32:58.919Z,98212.75
2023-02-09T14:37:58.916Z,98212.75
2023-02-09T14:43:12.737Z,98219.19
2023-02-09T14:58:49.679Z,98218.84
2023-02-09T15:03:45.767Z,98218.31
2023-02-09T15:08:40.559Z,98226.28
2023-02-09T15:18:40.605Z,98233.22
2023-02-09T15:23:33.110Z,98239.78
2023-02-09T15:28:32.295Z,98242.16
2023-02-09T15:33:31.466Z,98246.47
2023-02-09T15:43:48.733Z,98263.44
2023-02-09T15:48:41.665Z,98262.97
2023-02-09T15:53:45.154Z,98252.75
2023-02-09T15:58:42.538Z,98266.38
2023-02-09T16:03:35.078Z,98273.94
2023-02-09T16:08:32.830Z,98269.91
2023-02-09T16:13:25.310Z,98268.13
2023-02-09T16:18:20.540Z,98273.47
2023-02-09T16:23:20.946Z,98272.13
2023-02-09T16:33:44.600Z,98285.09
2023-02-09T16:38:39.485Z,98287.94
2023-02-09T16:43:32.260Z,98309.84
2023-02-09T16:48:29.565Z,98313.53
2023-02-09T16:53:41.545Z,98318.91
2023-02-09T17:24:18.688Z,98318.50
2023-02-09T17:29:12.801Z,98329.72
2023-02-09T17:34:17.993Z,98330.94
2023-02-09T17:39:15.917Z,98336.19
2023-02-09T17:44:29.075Z,98338.59
2023-02-09T17:49:28.270Z,98347.53
2023-02-09T17:54:22.660Z,98355.53
2023-02-09T17:59:15.427Z,98357.22
2023-02-09T18:04:17.175Z,98356.59
2023-02-09T18:09:12.499Z,98366.25
2023-02-09T18:14:04.422Z,98368.19
2023-02-09T18:18:56.220Z,98375.78
2023-02-09T18:23:51.837Z,98382.94
2023-02-09T18:28:43.708Z,98376.63
2023-02-09T18:33:40.041Z,98386.50
2023-02-09T18:38:35.631Z,98377.28
2023-02-09T18:43:29.223Z,98381.84
2023-02-09T18:48:21.714Z,98381.16
2023-02-09T18:53:15.392Z,98388.28
2023-02-09T18:58:16.001Z,98393.31
2023-02-09T19:03:07.804Z,98401.63
2023-02-09T19:13:06.019Z,98420.06
2023-02-09T19:17:58.449Z,98419.59
2023-02-09T19:22:53.946Z,98425.69
2023-02-09T19:27:46.042Z,98433.53
2023-02-09T19:32:38.292Z,98436.00
2023-02-09T19:37:31.542Z,98434.69
2023-02-09T19:42:25.070Z,98442.06
2023-02-09T19:47:20.751Z,98436.53
2023-02-09T19:52:13.341Z,98438.75
2023-02-09T19:57:06.001Z,98449.53
2023-02-09T20:01:59.210Z,98452.91
2023-02-09T20:06:53.717Z,98463.72
2023-02-09T20:16:54.541Z,98475.44
2023-02-09T20:21:46.328Z,98480.00
2023-02-09T20:31:44.764Z,98483.69
2023-02-09T20:36:47.496Z,98490.63
2023-02-09T20:41:42.102Z,98490.22
2023-02-09T20:46:45.591Z,98484.59
2023-02-09T20:51:38.346Z,98487.56
2023-02-09T20:56:31.574Z,98497.50
2023-02-09T21:01:24.394Z,98495.75
2023-02-09T21:06:16.950Z,98490.34
2023-02-09T21:11:14.391Z,98494.53
2023-02-09T21:16:06.736Z,98504.50
2023-02-09T21:21:00.836Z,98506.00
2023-02-09T21:26:06.600Z,98509.09
2023-02-09T21:30:59.092Z,98505.22
2023-02-09T21:35:52.367Z,98513.25
2023-02-09T21:40:44.261Z,98514.72
2023-02-09T21:50:45.117Z,98513.75
2023-02-09T21:55:37.100Z,98510.38
2023-02-09T22:00:30.854Z,98519.13
2023-02-09T22:05:23.824Z,98515.03
2023-02-09T22:10:20.221Z,98520.78
2023-02-09T22:15:13.112Z,98526.13
2023-02-09T22:20:06.290Z,98533.53
2023-02-09T22:24:59.172Z,98533.75
2023-02-09T22:29:51.365Z,98537.00
2023-02-09T22:34:44.262Z,98541.50
2023-02-09T22:39:36.231Z,98545.41
2023-02-09T22:44:28.131Z,98559.03
2023-02-09T22:49:21.182Z,98547.63
2023-02-09T22:54:17.496Z,98548.97
2023-02-09T22:59:12.979Z,98557.38
2023-02-09T23:04:04.896Z,98567.38
2023-02-09T23:09:00.747Z,98571.84
2023-02-09T23:14:03.872Z,98583.06
2023-02-09T23:19:05.398Z,98582.06
2023-02-09T23:23:57.539Z,98580.00
2023-02-09T23:28:53.896Z,98588.22
2023-02-09T23:33:46.861Z,98582.06
2023-02-09T23:38:39.373Z,98595.03
2023-02-09T23:43:31.101Z,98597.28
2023-02-09T23:48:23.096Z,98604.88
2023-02-09T23:53:14.996Z,98606.63
2023-02-09T23:58:07.190Z,98601.28
